Terminal Aerodrome Forecast
Issued by NWS Wilmington, OH

Current Version | Previous Version | Text Only | Print | Product List | Glossary Off
Versions: 1 2 3 4 5 6 7 8 9 10 11 12 13 14

000
FTUS41 KILN 240520
TAFILN
TAF
KILN 240520Z 2406/2506 05008KT P6SM FEW250
     FM241500 07012KT P6SM SCT200
     FM242300 09010KT P6SM SCT050 BKN200=

USA.gov is the U.S. government's official web portal to all federal, state and local government web resources and services.